Terminal Aerodrome Forecast
Issued by NWS Charleston, WV

Current Version | Previous Version | Text Only | Print | Product List | Glossary Off
Versions: 1 2 3 4 5 6 7 8 9 10 11 12 13 14 15 16 17 18 19 20 21 22 23 24

542
FTUS41 KRLX 250849 AAA
TAFHTS
TAF AMD
KHTS 250849Z 2509/2606 06006KT P6SM BKN080
      TEMPO 2512/2515 BKN025
     FM251500 VRB03KT P6SM OVC015
     FM251700 VRB03KT P6SM BKN130
     FM251800 VRB03KT P6SM SCT100=

USA.gov is the U.S. government's official web portal to all federal, state and local government web resources and services.